Fort Lauderdale Executive Airport
KFXE : now visible

Airfield :











YOU CAN JOIN US ON...

 
LOGIN :

Register | Disclaimer

   EN    FR    IT 

 









Legend :    VFR   Marginal VFR   IFR   Intensive IFR   Very Intensive IFR
Visi :
Ceiling :
>= 8 km
>= 3000ft
5 to 8 km
1000 to 3000 ft
1500m to 5 km
500 to 1000 ft
800 to 1500m
200 to 500 ft
< 800m
< 200 ft
Symbols :   Thunderstorms  Fog  Heavy snow  Heavy precipitations  Wind > 20 kt






- Airport Elevation : 13 ft


KFXE - Fort Lauderdale Executive

CURRENT METAR :
  • 072053Z 10012KT 10SM SCT028 28/20 A3000 RMK AO2 SLP163 T02830200 56019

EXPIRED METARs :
  • 071953Z 11012KT 10SM FEW027 SCT036 28/20 A3001 RMK AO2 SLP164 T02830200
  • 071853Z 12011KT 10SM SCT028 SCT033 28/21 A3003 RMK AO2 SLP173 T02830206

TAF KFXE
Valid from the 07 at 21:00 until the 08 at 18:00 UTC


072039Z 0721/0818 11011KT P6SM SCT025 BKN035
FM080200 14006KT P6SM SCT020 SCT250
FM080900 VRB05KT P6SM SCT020 BKN050
FM081500 24011KT P6SM FEW250



MET'MAP, your aeronautical weather chart ! - Copyright ORBIFLY December 2007 - Disclaimer

ORBIFLY MET'MAP TEAM :

Programming & Development : Alexandra Zaïnal
Concept & original design : Baudouin d'Aumeries
Assistance for programming : Marc-Olivier Méhu
Technical & hardware support : Manuel Goepfert

Contact : metmap@orbifly.com




SOURCES & CREDITS :

   NOAA       Earth
Advisory